Terminal Aerodrome Forecast
Issued by NWS

Home | Current Version | Previous Version | Text Only | Print | Product List | Glossary On
Versions: 1 2 3 4 5 6 7 8 9 10 11 12 13 14 15
000
FTUS42 TJSJ 210526
TAFJBQ
TAF
TJBQ 210526Z 2106/2206 16025G40KT 3SM SHRA VCTS BKN015CB
      TEMPO 2106/2109 1SM +SHRA BKN010
     FM211400 18015G30KT 5SM SHRA BKN020
     FM212100 18010G20KT P6SM VCSH BKN025
     FM220200 16010KT P6SM SCT025
      AMD NOT SKED=

USA.gov is the U.S. government's official web portal to all federal, state and local government web resources and services.